sensor_id;sensor_type;location;lat;lon;timestamp;temperature;humidity
35258;DHT22;21385;50.878;8.050;2023-05-01T00:00:38;10.80;99.90
35258;DHT22;21385;50.878;8.050;2023-05-01T00:03:04;10.80;99.90
35258;DHT22;21385;50.878;8.050;2023-05-01T00:05:29;10.70;99.90
35258;DHT22;21385;50.878;8.050;2023-05-01T00:07:55;10.80;99.90
35258;DHT22;21385;50.878;8.050;2023-05-01T00:10:21;10.80;99.90
35258;DHT22;21385;50.878;8.050;2023-05-01T00:12:47;10.70;99.90
35258;DHT22;21385;50.878;8.050;2023-05-01T00:15:12;10.70;99.90
35258;DHT22;21385;50.878;8.050;2023-05-01T00:17:38;10.70;99.90
35258;DHT22;21385;50.878;8.050;2023-05-01T00:20:04;10.70;99.90
35258;DHT22;21385;50.878;8.050;2023-05-01T00:22:30;10.70;99.90
35258;DHT22;21385;50.878;8.050;2023-05-01T00:24:55;10.70;99.90
35258;DHT22;21385;50.878;8.050;2023-05-01T00:27:21;10.70;99.90
35258;DHT22;21385;50.878;8.050;2023-05-01T00:29:47;10.70;99.90
35258;DHT22;21385;50.878;8.050;2023-05-01T00:32:12;10.70;99.90
35258;DHT22;21385;50.878;8.050;2023-05-01T00:34:39;10.70;99.90
35258;DHT22;21385;50.878;8.050;2023-05-01T00:37:06;10.70;99.90
35258;DHT22;21385;50.878;8.050;2023-05-01T00:39:31;10.80;99.90
35258;DHT22;21385;50.878;8.050;2023-05-01T00:41:57;10.80;99.90
35258;DHT22;21385;50.878;8.050;2023-05-01T00:44:23;10.80;99.90
35258;DHT22;21385;50.878;8.050;2023-05-01T00:46:49;10.80;99.90
35258;DHT22;21385;50.878;8.050;2023-05-01T00:49:14;10.70;99.90
35258;DHT22;21385;50.878;8.050;2023-05-01T00:51:42;10.70;99.90
35258;DHT22;21385;50.878;8.050;2023-05-01T00:54:08;10.60;99.90
35258;DHT22;21385;50.878;8.050;2023-05-01T00:56:34;10.60;99.90
35258;DHT22;21385;50.878;8.050;2023-05-01T00:58:59;10.60;99.90
35258;DHT22;21385;50.878;8.050;2023-05-01T01:01:25;10.50;99.90
35258;DHT22;21385;50.878;8.050;2023-05-01T01:03:51;10.50;99.90
35258;DHT22;21385;50.878;8.050;2023-05-01T01:12:08;10.40;99.90
35258;DHT22;21385;50.878;8.050;2023-05-01T01:14:49;10.40;99.90
35258;DHT22;21385;50.878;8.050;2023-05-01T01:20:22;10.30;99.90
35258;DHT22;21385;50.878;8.050;2023-05-01T01:23:12;10.20;99.90
35258;DHT22;21385;50.878;8.050;2023-05-01T01:28:45;10.20;99.90
35258;DHT22;21385;50.878;8.050;2023-05-01T01:34:24;10.10;99.90
35258;DHT22;21385;50.878;8.050;2023-05-01T01:37:11;10.10;99.90
35258;DHT22;21385;50.878;8.050;2023-05-01T01:42:09;10.00;99.90
35258;DHT22;21385;50.878;8.050;2023-05-01T01:44:49;9.90;99.90
35258;DHT22;21385;50.878;8.050;2023-05-01T01:47:17;9.90;99.90
35258;DHT22;21385;50.878;8.050;2023-05-01T01:49:47;9.80;99.90
35258;DHT22;21385;50.878;8.050;2023-05-01T01:54:47;9.70;99.90
35258;DHT22;21385;50.878;8.050;2023-05-01T01:57:17;9.70;99.90
35258;DHT22;21385;50.878;8.050;2023-05-01T01:59:43;9.60;99.90
35258;DHT22;21385;50.878;8.050;2023-05-01T02:02:11;9.60;99.90
35258;DHT22;21385;50.878;8.050;2023-05-01T02:04:38;9.70;99.90
35258;DHT22;21385;50.878;8.050;2023-05-01T02:07:05;9.60;99.90
35258;DHT22;21385;50.878;8.050;2023-05-01T02:09:33;9.70;99.90
35258;DHT22;21385;50.878;8.050;2023-05-01T02:12:01;9.60;99.90
35258;DHT22;21385;50.878;8.050;2023-05-01T02:14:28;9.60;99.90
35258;DHT22;21385;50.878;8.050;2023-05-01T02:16:54;9.60;99.90
35258;DHT22;21385;50.878;8.050;2023-05-01T02:19:21;9.60;99.90
35258;DHT22;21385;50.878;8.050;2023-05-01T02:21:48;9.60;99.90
35258;DHT22;21385;50.878;8.050;2023-05-01T02:24:14;9.60;99.90
35258;DHT22;21385;50.878;8.050;2023-05-01T02:26:42;9.60;99.90
35258;DHT22;21385;50.878;8.050;2023-05-01T02:29:12;9.60;99.90
35258;DHT22;21385;50.878;8.050;2023-05-01T02:31:37;9.60;99.90
35258;DHT22;21385;50.878;8.050;2023-05-01T02:34:03;9.60;99.90
35258;DHT22;21385;50.878;8.050;2023-05-01T02:36:28;9.50;99.90
35258;DHT22;21385;50.878;8.050;2023-05-01T02:38:54;9.60;99.90
35258;DHT22;21385;50.878;8.050;2023-05-01T02:41:21;9.60;99.90
35258;DHT22;21385;50.878;8.050;2023-05-01T02:43:55;9.60;99.90
35258;DHT22;21385;50.878;8.050;2023-05-01T02:46:23;9.70;99.90
35258;DHT22;21385;50.878;8.050;2023-05-01T02:48:50;9.70;99.90
35258;DHT22;21385;50.878;8.050;2023-05-01T02:51:17;9.70;99.90
35258;DHT22;21385;50.878;8.050;2023-05-01T02:53:44;9.80;99.90
35258;DHT22;21385;50.878;8.050;2023-05-01T02:56:11;9.80;99.90
35258;DHT22;21385;50.878;8.050;2023-05-01T02:58:37;9.80;99.90
35258;DHT22;21385;50.878;8.050;2023-05-01T03:01:03;9.80;99.90
35258;DHT22;21385;50.878;8.050;2023-05-01T03:03:28;9.80;99.90
35258;DHT22;21385;50.878;8.050;2023-05-01T03:05:54;9.80;99.90
35258;DHT22;21385;50.878;8.050;2023-05-01T03:08:20;9.80;99.90
35258;DHT22;21385;50.878;8.050;2023-05-01T03:10:45;9.80;99.90
35258;DHT22;21385;50.878;8.050;2023-05-01T03:13:11;9.80;99.90
35258;DHT22;21385;50.878;8.050;2023-05-01T03:15:37;9.80;99.90
35258;DHT22;21385;50.878;8.050;2023-05-01T03:18:03;9.80;99.90
35258;DHT22;21385;50.878;8.050;2023-05-01T03:20:29;9.80;99.90
35258;DHT22;21385;50.878;8.050;2023-05-01T03:22:55;9.70;99.90
35258;DHT22;21385;50.878;8.050;2023-05-01T03:25:21;9.80;99.90
35258;DHT22;21385;50.878;8.050;2023-05-01T03:27:47;9.80;99.90
35258;DHT22;21385;50.878;8.050;2023-05-01T03:30:13;9.70;99.90
35258;DHT22;21385;50.878;8.050;2023-05-01T03:32:40;9.80;99.90
35258;DHT22;21385;50.878;8.050;2023-05-01T03:35:05;9.80;99.90
35258;DHT22;21385;50.878;8.050;2023-05-01T03:37:32;9.80;99.90
35258;DHT22;21385;50.878;8.050;2023-05-01T03:39:58;9.80;99.90
35258;DHT22;21385;50.878;8.050;2023-05-01T03:42:24;9.80;99.90
35258;DHT22;21385;50.878;8.050;2023-05-01T03:44:50;9.80;99.90
35258;DHT22;21385;50.878;8.050;2023-05-01T03:47:15;9.80;99.90
35258;DHT22;21385;50.878;8.050;2023-05-01T03:49:41;9.80;99.90
35258;DHT22;21385;50.878;8.050;2023-05-01T03:52:08;9.80;99.90
35258;DHT22;21385;50.878;8.050;2023-05-01T03:54:34;9.70;99.90
35258;DHT22;21385;50.878;8.050;2023-05-01T03:57:00;9.70;99.90
35258;DHT22;21385;50.878;8.050;2023-05-01T03:59:25;9.70;99.90
35258;DHT22;21385;50.878;8.050;2023-05-01T04:01:51;9.70;99.90
35258;DHT22;21385;50.878;8.050;2023-05-01T04:04:17;9.70;99.90
35258;DHT22;21385;50.878;8.050;2023-05-01T04:06:42;9.80;99.90
35258;DHT22;21385;50.878;8.050;2023-05-01T04:09:08;9.80;99.90
35258;DHT22;21385;50.878;8.050;2023-05-01T04:11:34;9.90;99.90
35258;DHT22;21385;50.878;8.050;2023-05-01T04:13:59;9.90;99.90
35258;DHT22;21385;50.878;8.050;2023-05-01T04:16:25;9.80;99.90
35258;DHT22;21385;50.878;8.050;2023-05-01T04:18:51;10.50;99.90
35258;DHT22;21385;50.878;8.050;2023-05-01T04:21:17;11.90;99.90
35258;DHT22;21385;50.878;8.050;2023-05-01T04:23:43;12.20;99.90
35258;DHT22;21385;50.878;8.050;2023-05-01T04:26:09;12.10;99.90
35258;DHT22;21385;50.878;8.050;2023-05-01T04:28:34;11.90;99.90
35258;DHT22;21385;50.878;8.050;2023-05-01T04:31:00;11.60;99.90
35258;DHT22;21385;50.878;8.050;2023-05-01T04:33:25;11.40;99.90
35258;DHT22;21385;50.878;8.050;2023-05-01T04:35:52;11.10;99.90
35258;DHT22;21385;50.878;8.050;2023-05-01T04:38:18;10.90;99.90
35258;DHT22;21385;50.878;8.050;2023-05-01T04:40:44;10.80;99.90
35258;DHT22;21385;50.878;8.050;2023-05-01T04:43:10;10.70;99.90
35258;DHT22;21385;50.878;8.050;2023-05-01T04:45:37;11.20;99.90
35258;DHT22;21385;50.878;8.050;2023-05-01T04:48:03;11.90;99.90
35258;DHT22;21385;50.878;8.050;2023-05-01T04:50:28;12.00;99.90
35258;DHT22;21385;50.878;8.050;2023-05-01T04:52:54;11.90;99.90
35258;DHT22;21385;50.878;8.050;2023-05-01T04:55:19;11.70;99.90
35258;DHT22;21385;50.878;8.050;2023-05-01T04:57:45;11.50;99.90
35258;DHT22;21385;50.878;8.050;2023-05-01T05:00:11;11.30;99.90
35258;DHT22;21385;50.878;8.050;2023-05-01T05:02:37;11.20;99.90
35258;DHT22;21385;50.878;8.050;2023-05-01T05:05:03;11.10;99.90
35258;DHT22;21385;50.878;8.050;2023-05-01T05:07:28;11.00;99.90
35258;DHT22;21385;50.878;8.050;2023-05-01T05:09:54;10.90;99.90
35258;DHT22;21385;50.878;8.050;2023-05-01T05:12:20;10.80;99.90
35258;DHT22;21385;50.878;8.050;2023-05-01T05:14:46;10.80;99.90
35258;DHT22;21385;50.878;8.050;2023-05-01T05:17:12;10.70;99.90
35258;DHT22;21385;50.878;8.050;2023-05-01T05:19:38;10.70;99.90
35258;DHT22;21385;50.878;8.050;2023-05-01T05:22:04;10.70;99.90
35258;DHT22;21385;50.878;8.050;2023-05-01T05:24:30;10.60;99.90
35258;DHT22;21385;50.878;8.050;2023-05-01T05:26:55;10.60;99.90
35258;DHT22;21385;50.878;8.050;2023-05-01T05:29:21;10.70;99.90
35258;DHT22;21385;50.878;8.050;2023-05-01T05:31:47;10.70;99.90
35258;DHT22;21385;50.878;8.050;2023-05-01T05:34:12;10.70;99.90
35258;DHT22;21385;50.878;8.050;2023-05-01T05:36:38;10.70;99.90
35258;DHT22;21385;50.878;8.050;2023-05-01T05:39:04;10.70;99.90
35258;DHT22;21385;50.878;8.050;2023-05-01T05:41:29;10.80;99.90
35258;DHT22;21385;50.878;8.050;2023-05-01T05:43:55;10.80;99.90
35258;DHT22;21385;50.878;8.050;2023-05-01T05:46:21;10.80;99.90
35258;DHT22;21385;50.878;8.050;2023-05-01T05:48:46;10.80;99.90
35258;DHT22;21385;50.878;8.050;2023-05-01T05:51:12;10.90;99.90
35258;DHT22;21385;50.878;8.050;2023-05-01T05:53:37;10.90;99.90
35258;DHT22;21385;50.878;8.050;2023-05-01T05:56:03;10.90;99.90
35258;DHT22;21385;50.878;8.050;2023-05-01T05:58:29;10.90;99.90
35258;DHT22;21385;50.878;8.050;2023-05-01T06:00:55;10.90;99.90
35258;DHT22;21385;50.878;8.050;2023-05-01T06:03:20;10.90;99.90
35258;DHT22;21385;50.878;8.050;2023-05-01T06:05:47;11.00;99.90
35258;DHT22;21385;50.878;8.050;2023-05-01T06:08:13;11.00;99.90
35258;DHT22;21385;50.878;8.050;2023-05-01T06:10:41;11.00;99.90
35258;DHT22;21385;50.878;8.050;2023-05-01T06:13:07;11.10;99.90
35258;DHT22;21385;50.878;8.050;2023-05-01T06:15:34;11.10;99.90
35258;DHT22;21385;50.878;8.050;2023-05-01T06:17:59;11.10;99.90
35258;DHT22;21385;50.878;8.050;2023-05-01T06:20:25;11.20;99.90
35258;DHT22;21385;50.878;8.050;2023-05-01T06:22:50;11.30;99.90
35258;DHT22;21385;50.878;8.050;2023-05-01T06:25:16;11.30;99.90
35258;DHT22;21385;50.878;8.050;2023-05-01T06:27:42;11.40;99.90
35258;DHT22;21385;50.878;8.050;2023-05-01T06:30:08;11.50;99.90
35258;DHT22;21385;50.878;8.050;2023-05-01T06:32:34;11.60;99.90
35258;DHT22;21385;50.878;8.050;2023-05-01T06:34:59;11.60;99.90
35258;DHT22;21385;50.878;8.050;2023-05-01T06:37:25;11.70;99.90
35258;DHT22;21385;50.878;8.050;2023-05-01T06:39:51;11.80;99.90
35258;DHT22;21385;50.878;8.050;2023-05-01T06:42:16;11.80;99.90
35258;DHT22;21385;50.878;8.050;2023-05-01T06:44:42;11.90;99.90
35258;DHT22;21385;50.878;8.050;2023-05-01T06:47:08;12.00;99.90
35258;DHT22;21385;50.878;8.050;2023-05-01T06:49:34;12.10;99.90
35258;DHT22;21385;50.878;8.050;2023-05-01T06:52:00;12.10;99.90
35258;DHT22;21385;50.878;8.050;2023-05-01T06:54:25;12.20;99.90
35258;DHT22;21385;50.878;8.050;2023-05-01T06:56:54;12.30;99.90
35258;DHT22;21385;50.878;8.050;2023-05-01T06:59:20;12.40;99.90
35258;DHT22;21385;50.878;8.050;2023-05-01T07:01:45;12.50;99.90
35258;DHT22;21385;50.878;8.050;2023-05-01T07:04:11;12.60;99.90
35258;DHT22;21385;50.878;8.050;2023-05-01T07:06:36;12.60;99.90
35258;DHT22;21385;50.878;8.050;2023-05-01T07:09:05;12.80;99.90
35258;DHT22;21385;50.878;8.050;2023-05-01T07:11:31;12.90;99.90
35258;DHT22;21385;50.878;8.050;2023-05-01T07:13:59;13.00;99.90
35258;DHT22;21385;50.878;8.050;2023-05-01T07:16:25;13.10;99.90
35258;DHT22;21385;50.878;8.050;2023-05-01T07:18:51;13.20;99.90
35258;DHT22;21385;50.878;8.050;2023-05-01T07:21:16;13.30;99.90
35258;DHT22;21385;50.878;8.050;2023-05-01T07:23:42;13.30;99.90
35258;DHT22;21385;50.878;8.050;2023-05-01T07:26:07;13.40;99.90
35258;DHT22;21385;50.878;8.050;2023-05-01T07:28:33;13.50;99.90
35258;DHT22;21385;50.878;8.050;2023-05-01T07:31:01;13.60;99.90
35258;DHT22;21385;50.878;8.050;2023-05-01T07:33:27;13.70;99.90
35258;DHT22;21385;50.878;8.050;2023-05-01T07:35:53;13.80;99.90
35258;DHT22;21385;50.878;8.050;2023-05-01T07:38:19;13.80;99.90
35258;DHT22;21385;50.878;8.050;2023-05-01T07:40:44;13.90;99.90
35258;DHT22;21385;50.878;8.050;2023-05-01T07:43:10;14.00;99.90
35258;DHT22;21385;50.878;8.050;2023-05-01T07:45:37;14.10;99.90
35258;DHT22;21385;50.878;8.050;2023-05-01T07:48:03;14.20;99.90
35258;DHT22;21385;50.878;8.050;2023-05-01T07:50:29;14.30;99.90
35258;DHT22;21385;50.878;8.050;2023-05-01T07:52:55;14.40;99.90
35258;DHT22;21385;50.878;8.050;2023-05-01T07:55:21;14.50;99.90
35258;DHT22;21385;50.878;8.050;2023-05-01T07:57:47;14.50;99.90
35258;DHT22;21385;50.878;8.050;2023-05-01T08:00:13;14.60;99.90
35258;DHT22;21385;50.878;8.050;2023-05-01T08:02:39;14.60;99.90
35258;DHT22;21385;50.878;8.050;2023-05-01T08:05:08;14.70;99.90
35258;DHT22;21385;50.878;8.050;2023-05-01T08:07:34;14.80;99.90
35258;DHT22;21385;50.878;8.050;2023-05-01T08:09:59;14.90;99.90
35258;DHT22;21385;50.878;8.050;2023-05-01T08:12:25;15.00;99.50
35258;DHT22;21385;50.878;8.050;2023-05-01T08:17:17;15.00;98.90
35258;DHT22;21385;50.878;8.050;2023-05-01T08:19:43;15.10;99.10
35258;DHT22;21385;50.878;8.050;2023-05-01T08:22:10;15.20;99.10
35258;DHT22;21385;50.878;8.050;2023-05-01T08:24:37;15.20;99.50
35258;DHT22;21385;50.878;8.050;2023-05-01T08:27:02;15.30;99.20
35258;DHT22;21385;50.878;8.050;2023-05-01T08:29:28;15.30;99.20
35258;DHT22;21385;50.878;8.050;2023-05-01T08:31:55;15.40;98.70
35258;DHT22;21385;50.878;8.050;2023-05-01T08:34:21;15.50;99.40
35258;DHT22;21385;50.878;8.050;2023-05-01T08:36:47;15.60;99.80
35258;DHT22;21385;50.878;8.050;2023-05-01T08:39:12;15.80;99.50
35258;DHT22;21385;50.878;8.050;2023-05-01T08:41:39;15.90;98.20
35258;DHT22;21385;50.878;8.050;2023-05-01T08:44:07;16.00;97.20
35258;DHT22;21385;50.878;8.050;2023-05-01T08:46:43;16.00;97.00
35258;DHT22;21385;50.878;8.050;2023-05-01T08:49:14;16.10;97.50
35258;DHT22;21385;50.878;8.050;2023-05-01T08:51:41;16.20;96.80
35258;DHT22;21385;50.878;8.050;2023-05-01T08:54:10;16.40;96.50
35258;DHT22;21385;50.878;8.050;2023-05-01T08:56:37;16.50;95.60
35258;DHT22;21385;50.878;8.050;2023-05-01T08:59:04;16.60;95.00
35258;DHT22;21385;50.878;8.050;2023-05-01T09:01:32;16.70;96.00
35258;DHT22;21385;50.878;8.050;2023-05-01T09:04:01;16.80;95.50
35258;DHT22;21385;50.878;8.050;2023-05-01T09:06:28;16.90;94.50
35258;DHT22;21385;50.878;8.050;2023-05-01T09:08:53;17.00;94.00
35258;DHT22;21385;50.878;8.050;2023-05-01T09:11:21;17.00;94.80
35258;DHT22;21385;50.878;8.050;2023-05-01T09:13:47;17.20;94.60
35258;DHT22;21385;50.878;8.050;2023-05-01T09:16:13;17.30;93.90
35258;DHT22;21385;50.878;8.050;2023-05-01T09:18:38;17.50;94.60
35258;DHT22;21385;50.878;8.050;2023-05-01T09:21:05;17.60;94.70
35258;DHT22;21385;50.878;8.050;2023-05-01T09:23:31;17.80;93.40
35258;DHT22;21385;50.878;8.050;2023-05-01T09:25:58;17.80;93.50
35258;DHT22;21385;50.878;8.050;2023-05-01T09:28:43;18.00;92.10
35258;DHT22;21385;50.878;8.050;2023-05-01T09:31:29;18.00;92.30
35258;DHT22;21385;50.878;8.050;2023-05-01T09:33:59;18.30;92.20
35258;DHT22;21385;50.878;8.050;2023-05-01T09:36:27;18.50;91.50
35258;DHT22;21385;50.878;8.050;2023-05-01T09:38:59;18.90;91.40
35258;DHT22;21385;50.878;8.050;2023-05-01T09:41:25;19.10;90.50
35258;DHT22;21385;50.878;8.050;2023-05-01T09:43:55;19.40;90.90
35258;DHT22;21385;50.878;8.050;2023-05-01T09:46:23;19.70;90.50
35258;DHT22;21385;50.878;8.050;2023-05-01T09:48:53;20.00;90.60
35258;DHT22;21385;50.878;8.050;2023-05-01T09:53:46;20.70;87.00
35258;DHT22;21385;50.878;8.050;2023-05-01T09:56:12;20.90;77.20
35258;DHT22;21385;50.878;8.050;2023-05-01T09:58:39;20.80;83.70
35258;DHT22;21385;50.878;8.050;2023-05-01T10:01:04;21.00;83.10
35258;DHT22;21385;50.878;8.050;2023-05-01T10:03:31;21.10;79.60
35258;DHT22;21385;50.878;8.050;2023-05-01T10:05:58;21.20;79.50
35258;DHT22;21385;50.878;8.050;2023-05-01T10:08:26;21.20;74.70
35258;DHT22;21385;50.878;8.050;2023-05-01T10:11:04;21.20;75.50
35258;DHT22;21385;50.878;8.050;2023-05-01T10:13:30;21.10;75.10
35258;DHT22;21385;50.878;8.050;2023-05-01T10:15:56;21.00;74.10
35258;DHT22;21385;50.878;8.050;2023-05-01T10:18:22;21.00;72.40
35258;DHT22;21385;50.878;8.050;2023-05-01T10:20:48;20.90;71.90
35258;DHT22;21385;50.878;8.050;2023-05-01T10:23:14;20.70;72.40
35258;DHT22;21385;50.878;8.050;2023-05-01T10:25:41;20.40;71.50
35258;DHT22;21385;50.878;8.050;2023-05-01T10:28:08;20.10;73.10
35258;DHT22;21385;50.878;8.050;2023-05-01T10:30:34;19.90;73.80
35258;DHT22;21385;50.878;8.050;2023-05-01T10:33:01;19.80;76.30
35258;DHT22;21385;50.878;8.050;2023-05-01T10:35:31;19.90;74.00
35258;DHT22;21385;50.878;8.050;2023-05-01T10:38:04;19.90;73.60
35258;DHT22;21385;50.878;8.050;2023-05-01T10:40:43;19.90;72.90
35258;DHT22;21385;50.878;8.050;2023-05-01T10:43:22;19.90;75.70
35258;DHT22;21385;50.878;8.050;2023-05-01T10:45:51;19.80;70.70
35258;DHT22;21385;50.878;8.050;2023-05-01T10:53:44;19.80;73.60
35258;DHT22;21385;50.878;8.050;2023-05-01T11:01:40;20.20;70.40
35258;DHT22;21385;50.878;8.050;2023-05-01T11:15:30;19.90;69.30
35258;DHT22;21385;50.878;8.050;2023-05-01T11:17:57;20.00;70.10
35258;DHT22;21385;50.878;8.050;2023-05-01T11:22:50;19.80;68.50
35258;DHT22;21385;50.878;8.050;2023-05-01T11:28:07;19.70;69.60
35258;DHT22;21385;50.878;8.050;2023-05-01T11:30:37;19.60;70.40
35258;DHT22;21385;50.878;8.050;2023-05-01T11:33:03;19.60;71.20
35258;DHT22;21385;50.878;8.050;2023-05-01T11:35:31;19.70;71.70
35258;DHT22;21385;50.878;8.050;2023-05-01T11:37:57;19.80;69.50
35258;DHT22;21385;50.878;8.050;2023-05-01T11:40:26;19.80;70.60
35258;DHT22;21385;50.878;8.050;2023-05-01T11:43:00;19.80;70.00
35258;DHT22;21385;50.878;8.050;2023-05-01T11:45:26;19.70;68.60
35258;DHT22;21385;50.878;8.050;2023-05-01T11:47:52;19.60;69.00
35258;DHT22;21385;50.878;8.050;2023-05-01T11:50:18;19.60;69.40
35258;DHT22;21385;50.878;8.050;2023-05-01T11:52:48;19.60;70.70
35258;DHT22;21385;50.878;8.050;2023-05-01T11:55:15;19.60;67.20
35258;DHT22;21385;50.878;8.050;2023-05-01T11:57:51;19.60;66.70
35258;DHT22;21385;50.878;8.050;2023-05-01T12:00:40;19.50;66.40
35258;DHT22;21385;50.878;8.050;2023-05-01T12:03:11;19.60;68.00
35258;DHT22;21385;50.878;8.050;2023-05-01T12:05:42;19.70;67.50
35258;DHT22;21385;50.878;8.050;2023-05-01T12:08:10;19.90;66.80
35258;DHT22;21385;50.878;8.050;2023-05-01T12:10:38;20.20;66.70
35258;DHT22;21385;50.878;8.050;2023-05-01T12:13:05;20.50;64.70
35258;DHT22;21385;50.878;8.050;2023-05-01T12:15:33;20.50;62.20
35258;DHT22;21385;50.878;8.050;2023-05-01T12:18:01;20.50;64.40
35258;DHT22;21385;50.878;8.050;2023-05-01T12:21:07;20.50;60.00
35258;DHT22;21385;50.878;8.050;2023-05-01T12:23:35;20.50;59.40
35258;DHT22;21385;50.878;8.050;2023-05-01T12:26:17;20.60;59.00
35258;DHT22;21385;50.878;8.050;2023-05-01T12:29:15;20.70;59.40
35258;DHT22;21385;50.878;8.050;2023-05-01T12:34:16;20.30;60.90
35258;DHT22;21385;50.878;8.050;2023-05-01T12:36:51;20.20;60.90
35258;DHT22;21385;50.878;8.050;2023-05-01T12:39:17;20.00;59.60
35258;DHT22;21385;50.878;8.050;2023-05-01T12:41:49;20.00;59.80
35258;DHT22;21385;50.878;8.050;2023-05-01T12:44:25;20.00;62.20
35258;DHT22;21385;50.878;8.050;2023-05-01T12:49:24;20.10;61.90
35258;DHT22;21385;50.878;8.050;2023-05-01T12:51:55;20.10;62.40
35258;DHT22;21385;50.878;8.050;2023-05-01T12:54:22;20.10;60.80
35258;DHT22;21385;50.878;8.050;2023-05-01T12:56:49;20.10;61.60
35258;DHT22;21385;50.878;8.050;2023-05-01T12:59:20;20.00;61.10
35258;DHT22;21385;50.878;8.050;2023-05-01T13:01:46;19.80;62.40
35258;DHT22;21385;50.878;8.050;2023-05-01T13:04:19;19.60;63.00
35258;DHT22;21385;50.878;8.050;2023-05-01T13:06:45;19.50;65.10
35258;DHT22;21385;50.878;8.050;2023-05-01T13:09:10;19.50;66.60
35258;DHT22;21385;50.878;8.050;2023-05-01T13:11:37;19.30;64.60
35258;DHT22;21385;50.878;8.050;2023-05-01T13:14:06;19.10;64.90
35258;DHT22;21385;50.878;8.050;2023-05-01T13:16:33;19.00;65.00
35258;DHT22;21385;50.878;8.050;2023-05-01T13:18:58;19.00;65.90
35258;DHT22;21385;50.878;8.050;2023-05-01T13:21:24;19.00;65.50
35258;DHT22;21385;50.878;8.050;2023-05-01T13:23:54;19.00;66.00
35258;DHT22;21385;50.878;8.050;2023-05-01T13:26:31;19.00;67.70
35258;DHT22;21385;50.878;8.050;2023-05-01T13:28:58;19.00;67.50
35258;DHT22;21385;50.878;8.050;2023-05-01T13:31:25;18.90;66.40
35258;DHT22;21385;50.878;8.050;2023-05-01T13:33:52;18.90;67.80
35258;DHT22;21385;50.878;8.050;2023-05-01T13:36:19;18.90;68.40
35258;DHT22;21385;50.878;8.050;2023-05-01T13:38:46;18.90;69.70
35258;DHT22;21385;50.878;8.050;2023-05-01T13:41:14;18.90;68.90
35258;DHT22;21385;50.878;8.050;2023-05-01T13:43:40;18.80;69.40
35258;DHT22;21385;50.878;8.050;2023-05-01T13:46:08;18.90;69.10
35258;DHT22;21385;50.878;8.050;2023-05-01T13:48:35;18.90;69.30
35258;DHT22;21385;50.878;8.050;2023-05-01T13:51:00;18.90;67.60
35258;DHT22;21385;50.878;8.050;2023-05-01T13:53:26;18.90;69.00
35258;DHT22;21385;50.878;8.050;2023-05-01T13:55:51;18.90;67.30
35258;DHT22;21385;50.878;8.050;2023-05-01T13:58:17;19.00;67.90
35258;DHT22;21385;50.878;8.050;2023-05-01T14:00:43;19.00;68.30
35258;DHT22;21385;50.878;8.050;2023-05-01T14:03:09;19.00;67.70
35258;DHT22;21385;50.878;8.050;2023-05-01T14:05:37;19.00;69.50
35258;DHT22;21385;50.878;8.050;2023-05-01T14:08:07;19.10;70.00
35258;DHT22;21385;50.878;8.050;2023-05-01T14:10:33;19.30;70.50
35258;DHT22;21385;50.878;8.050;2023-05-01T14:12:59;19.40;70.70
35258;DHT22;21385;50.878;8.050;2023-05-01T14:15:25;19.60;68.70
35258;DHT22;21385;50.878;8.050;2023-05-01T14:17:51;19.70;69.00
35258;DHT22;21385;50.878;8.050;2023-05-01T14:20:17;19.80;66.40
35258;DHT22;21385;50.878;8.050;2023-05-01T14:22:47;19.80;66.60
35258;DHT22;21385;50.878;8.050;2023-05-01T14:25:25;19.80;67.20
35258;DHT22;21385;50.878;8.050;2023-05-01T14:27:52;19.80;66.70
35258;DHT22;21385;50.878;8.050;2023-05-01T14:30:25;19.90;66.40
35258;DHT22;21385;50.878;8.050;2023-05-01T14:32:52;19.90;69.40
35258;DHT22;21385;50.878;8.050;2023-05-01T14:35:19;20.00;67.30
35258;DHT22;21385;50.878;8.050;2023-05-01T14:37:46;20.10;67.50
35258;DHT22;21385;50.878;8.050;2023-05-01T14:40:11;20.10;65.40
35258;DHT22;21385;50.878;8.050;2023-05-01T14:42:43;20.00;65.90
35258;DHT22;21385;50.878;8.050;2023-05-01T14:45:13;20.00;67.50
35258;DHT22;21385;50.878;8.050;2023-05-01T14:47:47;19.90;64.80
35258;DHT22;21385;50.878;8.050;2023-05-01T14:50:19;19.70;67.50
35258;DHT22;21385;50.878;8.050;2023-05-01T14:52:45;19.70;67.20
35258;DHT22;21385;50.878;8.050;2023-05-01T14:55:11;19.70;67.70
35258;DHT22;21385;50.878;8.050;2023-05-01T14:57:37;19.80;69.20
35258;DHT22;21385;50.878;8.050;2023-05-01T15:00:03;19.90;67.70
35258;DHT22;21385;50.878;8.050;2023-05-01T15:02:31;19.90;67.80
35258;DHT22;21385;50.878;8.050;2023-05-01T15:04:57;19.80;68.10
35258;DHT22;21385;50.878;8.050;2023-05-01T15:07:23;19.90;68.40
35258;DHT22;21385;50.878;8.050;2023-05-01T15:09:48;19.90;68.90
35258;DHT22;21385;50.878;8.050;2023-05-01T15:12:14;19.90;68.70
35258;DHT22;21385;50.878;8.050;2023-05-01T15:14:40;20.00;69.50
35258;DHT22;21385;50.878;8.050;2023-05-01T15:17:06;20.10;67.70
35258;DHT22;21385;50.878;8.050;2023-05-01T15:19:31;20.10;67.30
35258;DHT22;21385;50.878;8.050;2023-05-01T15:21:57;20.00;66.80
35258;DHT22;21385;50.878;8.050;2023-05-01T15:24:23;20.00;66.60
35258;DHT22;21385;50.878;8.050;2023-05-01T15:26:48;19.90;67.00
35258;DHT22;21385;50.878;8.050;2023-05-01T15:29:14;19.70;66.60
35258;DHT22;21385;50.878;8.050;2023-05-01T15:31:40;19.60;67.00
35258;DHT22;21385;50.878;8.050;2023-05-01T15:34:05;19.50;67.50
35258;DHT22;21385;50.878;8.050;2023-05-01T15:36:32;19.40;67.90
35258;DHT22;21385;50.878;8.050;2023-05-01T15:38:57;19.40;68.40
35258;DHT22;21385;50.878;8.050;2023-05-01T15:41:23;19.30;69.80
35258;DHT22;21385;50.878;8.050;2023-05-01T15:43:48;19.30;68.50
35258;DHT22;21385;50.878;8.050;2023-05-01T15:46:14;19.20;68.10
35258;DHT22;21385;50.878;8.050;2023-05-01T15:48:40;19.30;68.90
35258;DHT22;21385;50.878;8.050;2023-05-01T15:51:05;19.20;66.20
35258;DHT22;21385;50.878;8.050;2023-05-01T15:53:31;19.10;65.60
35258;DHT22;21385;50.878;8.050;2023-05-01T15:55:57;19.00;67.80
35258;DHT22;21385;50.878;8.050;2023-05-01T15:58:23;18.90;65.20
35258;DHT22;21385;50.878;8.050;2023-05-01T16:00:49;18.80;66.40
35258;DHT22;21385;50.878;8.050;2023-05-01T16:03:14;18.70;67.10
35258;DHT22;21385;50.878;8.050;2023-05-01T16:05:43;18.60;67.90
35258;DHT22;21385;50.878;8.050;2023-05-01T16:08:10;18.50;68.50
35258;DHT22;21385;50.878;8.050;2023-05-01T16:10:35;18.50;69.70
35258;DHT22;21385;50.878;8.050;2023-05-01T16:13:03;18.50;70.90
35258;DHT22;21385;50.878;8.050;2023-05-01T16:15:31;18.40;71.00
35258;DHT22;21385;50.878;8.050;2023-05-01T16:17:56;18.40;71.80
35258;DHT22;21385;50.878;8.050;2023-05-01T16:20:22;18.40;72.00
35258;DHT22;21385;50.878;8.050;2023-05-01T16:22:48;18.60;71.60
35258;DHT22;21385;50.878;8.050;2023-05-01T16:25:15;18.90;70.20
35258;DHT22;21385;50.878;8.050;2023-05-01T16:27:41;19.30;71.20
35258;DHT22;21385;50.878;8.050;2023-05-01T16:30:09;19.60;69.00